Time;durP1;ratioP1;P1;durP2;ratioP2;P2;SDS_P1;SDS_P2;PMS_P1;PMS_P2;Temp;Humidity;BMP_temperature;BMP_pressure;BME280_temperature;BME280_humidity;BME280_pressure;Samples;Min_cycle;Max_cycle;Signal;HPM_P1;HPM_P2
2022/10/19 00:02:23;;;;;;;1999.90;999.90;;;9.60;99.90;;;;;;5112722;27;20523;-65
2022/10/19 00:04:49;;;;;;;1999.90;999.90;;;9.60;99.90;;;;;;5106354;27;20063;-65
2022/10/19 00:07:14;;;;;;;1999.90;999.90;;;9.60;99.90;;;;;;5097522;28;20497;-65
2022/10/19 00:09:42;;;;;;;1999.90;999.90;;;9.70;99.90;;;;;;5107369;28;20489;-65
2022/10/19 00:12:08;;;;;;;1999.90;999.90;;;9.80;99.90;;;;;;5096661;27;20489;-65
2022/10/19 00:14:33;;;;;;;1999.90;999.90;;;9.80;99.90;;;;;;5090845;28;20047;-65
2022/10/19 00:16:59;;;;;;;1999.90;999.90;;;9.80;99.90;;;;;;5116713;27;20031;-65
2022/10/19 00:19:26;;;;;;;1999.90;999.90;;;9.90;99.90;;;;;;5109270;27;20035;-65
2022/10/19 00:21:52;;;;;;;1999.90;999.90;;;9.90;99.90;;;;;;5109859;28;20153;-65
2022/10/19 00:24:18;;;;;;;1999.90;999.90;;;9.90;99.90;;;;;;5109988;27;20122;-65
2022/10/19 00:26:44;;;;;;;1999.90;999.90;;;9.90;99.90;;;;;;5109499;28;20071;-65
2022/10/19 00:29:12;;;;;;;1999.90;999.90;;;9.80;99.90;;;;;;5109425;27;20566;-65
2022/10/19 00:31:38;;;;;;;1999.90;999.90;;;9.80;99.90;;;;;;5108575;27;20039;-65
2022/10/19 00:34:03;;;;;;;1999.90;999.90;;;9.90;99.90;;;;;;5108300;27;20040;-65
2022/10/19 00:36:39;;;;;;;1999.90;999.90;;;9.80;99.90;;;;;;5089577;28;20097;-65
2022/10/19 00:39:09;;;;;;;1999.90;999.90;;;9.80;99.90;;;;;;5103224;28;20434;-65
2022/10/19 00:41:36;;;;;;;1999.90;999.90;;;9.80;99.90;;;;;;5109267;28;20027;-65
2022/10/19 00:44:06;;;;;;;1999.90;999.90;;;9.80;99.90;;;;;;5109032;28;20058;-65
2022/10/19 00:46:35;;;;;;;1999.90;999.90;;;9.80;99.90;;;;;;5110299;27;20044;-65
2022/10/19 00:49:11;;;;;;;1999.90;999.90;;;9.80;99.90;;;;;;5092446;27;20070;-65
2022/10/19 00:51:42;;;;;;;1999.90;999.90;;;9.80;99.90;;;;;;5086723;28;20039;-65
2022/10/19 00:54:08;;;;;;;1999.90;999.90;;;9.80;99.90;;;;;;5111855;27;20046;-65
2022/10/19 00:56:37;;;;;;;1999.90;999.90;;;9.80;99.90;;;;;;5100780;28;20039;-65
2022/10/19 00:59:04;;;;;;;1999.90;999.90;;;9.80;99.90;;;;;;5117602;27;20110;-65
2022/10/19 01:01:32;;;;;;;1999.90;999.90;;;9.90;99.90;;;;;;5110349;27;20126;-65
2022/10/19 01:03:58;;;;;;;1999.90;999.90;;;9.90;99.90;;;;;;5090696;28;20035;-65
2022/10/19 01:06:24;;;;;;;1999.90;999.90;;;9.90;99.90;;;;;;5108770;28;20493;-65
2022/10/19 01:08:50;;;;;;;1999.90;999.90;;;9.90;99.90;;;;;;5094062;28;20480;-65
2022/10/19 01:11:22;;;;;;;1999.90;999.90;;;9.90;99.90;;;;;;5090218;27;20444;-65
2022/10/19 01:14:13;;;;;;;1999.90;999.90;;;10.00;99.90;;;;;;5115874;27;20049;-65
2022/10/19 01:17:00;;;;;;;1999.90;999.90;;;10.00;99.90;;;;;;5102751;27;20107;-66
2022/10/19 01:20:09;;;;;;;1999.90;999.90;;;10.00;99.90;;;;;;5105730;27;20108;-65
2022/10/19 01:22:52;;;;;;;1999.90;999.90;;;10.00;99.90;;;;;;5104130;27;20126;-65
2022/10/19 01:25:48;;;;;;;1999.90;999.90;;;10.00;99.90;;;;;;5108450;28;20119;-65
2022/10/19 01:28:25;;;;;;;1999.90;999.90;;;10.10;99.90;;;;;;5104039;28;20459;-65
2022/10/19 01:31:03;;;;;;;1999.90;999.90;;;10.10;99.90;;;;;;5095595;28;20047;-65
2022/10/19 01:33:56;;;;;;;1999.90;999.90;;;10.10;99.90;;;;;;5099497;28;20055;-65
2022/10/19 01:36:31;;;;;;;1999.90;999.90;;;10.10;99.90;;;;;;5109443;27;20526;-65
2022/10/19 01:39:23;;;;;;;1999.90;999.90;;;10.10;99.90;;;;;;5112705;27;20455;-65
2022/10/19 01:41:59;;;;;;;1999.90;999.90;;;10.10;99.90;;;;;;5109759;27;20062;-65
2022/10/19 01:44:36;;;;;;;1999.90;999.90;;;10.10;99.90;;;;;;5091874;28;20417;-65
2022/10/19 01:47:10;;;;;;;1999.90;999.90;;;10.10;99.90;;;;;;5091568;27;20114;-65
2022/10/19 01:49:47;;;;;;;1999.90;999.90;;;10.00;99.90;;;;;;5108099;27;20039;-65
2022/10/19 01:52:16;;;;;;;1999.90;999.90;;;10.00;99.90;;;;;;5107848;28;20472;-65
2022/10/19 01:54:48;;;;;;;1999.90;999.90;;;10.00;99.90;;;;;;5101756;28;20050;-65
2022/10/19 01:57:19;;;;;;;1999.90;999.90;;;10.00;99.90;;;;;;5082603;28;20139;-65
2022/10/19 01:59:46;;;;;;;1999.90;999.90;;;10.10;99.90;;;;;;5089765;28;20051;-65
2022/10/19 02:02:13;;;;;;;1999.90;999.90;;;10.10;99.90;;;;;;5090693;28;20050;-65
2022/10/19 02:04:40;;;;;;;1999.90;999.90;;;10.10;99.90;;;;;;5114624;28;20109;-65
2022/10/19 02:07:07;;;;;;;1999.90;999.90;;;10.10;99.90;;;;;;5116405;28;20504;-65
2022/10/19 02:09:32;;;;;;;1999.90;999.90;;;10.10;99.90;;;;;;5108153;28;20456;-65
2022/10/19 02:12:02;;;;;;;1999.90;999.90;;;10.10;99.90;;;;;;5109286;28;20040;-65
2022/10/19 02:14:35;;;;;;;1999.90;999.90;;;10.10;99.90;;;;;;5109747;28;20871;-65
2022/10/19 02:17:07;;;;;;;1999.90;999.90;;;10.20;99.90;;;;;;5090312;28;20035;-65
2022/10/19 02:19:33;;;;;;;;;;;10.20;99.90;;;;;;5110682;28;20474;-65
2022/10/19 02:21:59;;;;;;;1999.90;999.90;;;10.20;99.90;;;;;;5086432;28;19927;-65
2022/10/19 02:24:24;;;;;;;1999.90;999.90;;;10.30;99.90;;;;;;5088639;28;20044;-65
2022/10/19 02:26:51;;;;;;;1999.90;999.90;;;10.30;99.90;;;;;;5111402;28;20066;-65
2022/10/19 02:29:17;;;;;;;1999.90;999.90;;;10.30;99.90;;;;;;5078790;28;20054;-65
2022/10/19 02:31:44;;;;;;;1999.90;999.90;;;10.30;99.90;;;;;;5113738;28;20047;-65
2022/10/19 02:34:10;;;;;;;1999.90;999.90;;;10.30;99.90;;;;;;5108343;28;20046;-65
2022/10/19 02:36:36;;;;;;;1999.90;999.90;;;10.30;99.90;;;;;;5089070;28;20039;-65
2022/10/19 02:39:02;;;;;;;1999.90;999.90;;;10.30;99.90;;;;;;5103096;28;20085;-65
2022/10/19 02:42:00;;;;;;;1999.90;999.90;;;10.30;99.90;;;;;;5106231;28;20523;-65
2022/10/19 02:44:51;;;;;;;1999.90;999.90;;;10.30;99.90;;;;;;5108761;28;20051;-65
2022/10/19 02:47:26;;;;;;;1999.90;999.90;;;10.30;99.90;;;;;;5071232;28;20047;-65
2022/10/19 02:49:52;;;;;;;1999.90;999.90;;;10.30;99.90;;;;;;5118106;28;20118;-65
2022/10/19 02:52:18;;;;;;;1999.90;999.90;;;10.30;99.90;;;;;;5106983;28;20121;-65
2022/10/19 02:54:44;;;;;;;1999.90;999.90;;;10.30;99.90;;;;;;5103490;28;20039;-65
2022/10/19 02:57:24;;;;;;;1999.90;999.90;;;10.20;99.90;;;;;;5088141;28;20056;-65
2022/10/19 02:59:51;;;;;;;1999.90;999.90;;;10.30;99.90;;;;;;5095555;27;20436;-65
2022/10/19 03:02:18;;;;;;;1999.90;999.90;;;10.20;99.90;;;;;;5115703;27;20042;-65
2022/10/19 03:04:44;;;;;;;1999.90;999.90;;;10.10;99.90;;;;;;5085328;28;20393;-65
2022/10/19 03:07:13;;;;;;;1999.90;999.90;;;10.10;99.90;;;;;;5090693;28;20174;-65
2022/10/19 03:09:39;;;;;;;1999.90;999.90;;;10.00;99.90;;;;;;5097197;27;20506;-65
2022/10/19 03:12:05;;;;;;;1999.90;999.90;;;9.90;99.90;;;;;;5116321;27;20036;-65
2022/10/19 03:14:30;;;;;;;1999.90;999.90;;;9.90;99.90;;;;;;5111969;27;20047;-65
2022/10/19 03:16:56;;;;;;;1999.90;999.90;;;9.80;99.90;;;;;;5119671;27;20602;-65
2022/10/19 03:19:21;;;;;;;1999.90;999.90;;;9.80;99.90;;;;;;5103389;27;20059;-65
2022/10/19 03:21:47;;;;;;;1999.90;999.90;;;9.70;99.90;;;;;;5121914;27;20462;-65
2022/10/19 03:24:12;;;;;;;1999.90;999.90;;;9.70;99.90;;;;;;5111379;27;20063;-65
2022/10/19 03:26:38;;;;;;;1999.90;999.90;;;9.60;99.90;;;;;;5123105;27;20031;-65
2022/10/19 03:29:04;;;;;;;1999.90;999.90;;;9.60;99.90;;;;;;5084725;28;20046;-65
2022/10/19 03:31:29;;;;;;;1999.90;999.90;;;9.50;99.90;;;;;;5118221;27;20039;-65
2022/10/19 03:33:55;;;;;;;1999.90;999.90;;;9.50;99.90;;;;;;5109963;27;20046;-65
2022/10/19 03:36:23;;;;;;;1999.90;999.90;;;9.40;99.90;;;;;;5110631;27;20520;-65
2022/10/19 03:38:50;;;;;;;1999.90;999.90;;;9.40;99.90;;;;;;5117607;27;20035;-65
2022/10/19 03:41:15;;;;;;;1999.90;999.90;;;9.30;99.90;;;;;;5113101;27;20043;-65
2022/10/19 03:43:41;;;;;;;1999.90;999.90;;;9.30;99.90;;;;;;5116242;27;20044;-65
2022/10/19 03:46:07;;;;;;;1999.90;999.90;;;9.20;99.90;;;;;;5118457;27;20054;-65
2022/10/19 03:48:33;;;;;;;1999.90;999.90;;;9.20;99.90;;;;;;5092713;27;20043;-65
2022/10/19 03:51:07;;;;;;;1999.90;999.90;;;9.10;99.90;;;;;;5116855;27;20039;-65
2022/10/19 03:53:33;;;;;;;1999.90;999.90;;;9.10;99.90;;;;;;5115288;27;20046;-65
2022/10/19 03:56:04;;;;;;;1999.90;999.90;;;9.10;99.90;;;;;;5106045;28;20039;-65
2022/10/19 03:58:32;;;;;;;1999.90;999.90;;;9.10;99.90;;;;;;5104911;27;20072;-65
2022/10/19 04:00:57;;;;;;;1999.90;999.90;;;9.10;99.90;;;;;;5111703;27;20040;-65
2022/10/19 04:03:23;;;;;;;1999.90;999.90;;;9.10;99.90;;;;;;5109889;27;20027;-65
2022/10/19 04:05:49;;;;;;;1999.90;999.90;;;9.10;99.90;;;;;;5102884;28;20532;-65
2022/10/19 04:08:14;;;;;;;1999.90;999.90;;;9.10;99.90;;;;;;5117022;27;20081;-65
2022/10/19 04:10:40;;;;;;;1999.90;999.90;;;9.10;99.90;;;;;;5110931;27;20139;-65
2022/10/19 04:13:05;;;;;;;1999.90;999.90;;;9.20;99.90;;;;;;5116737;27;20140;-65
2022/10/19 04:15:31;;;;;;;1999.90;999.90;;;9.20;99.90;;;;;;5109485;28;20506;-65
2022/10/19 04:17:56;;;;;;;1999.90;999.90;;;9.20;99.90;;;;;;5109566;27;20692;-65
2022/10/19 04:20:22;;;;;;;1999.90;999.90;;;9.20;99.90;;;;;;5114471;27;20040;-65
2022/10/19 04:22:47;;;;;;;1999.90;999.90;;;9.30;99.90;;;;;;5111759;27;20035;-65
2022/10/19 04:25:13;;;;;;;1999.90;999.90;;;9.30;99.90;;;;;;5092512;28;20408;-65
2022/10/19 04:27:38;;;;;;;1999.90;999.90;;;9.30;99.90;;;;;;5083148;28;20076;-65
2022/10/19 04:30:04;;;;;;;1999.90;999.90;;;9.30;99.90;;;;;;5109054;28;20048;-65
2022/10/19 04:32:30;;;;;;;1999.90;999.90;;;9.40;99.90;;;;;;5090344;28;20545;-65
2022/10/19 04:34:55;;;;;;;1999.90;999.90;;;9.40;99.90;;;;;;5092508;28;20031;-65
2022/10/19 04:37:21;;;;;;;1999.90;999.90;;;9.40;99.90;;;;;;5111059;27;20051;-65
2022/10/19 04:39:46;;;;;;;1999.90;999.90;;;9.40;99.90;;;;;;5107474;27;20039;-65
2022/10/19 04:42:12;;;;;;;1999.90;999.90;;;9.40;99.90;;;;;;5107917;27;20122;-65
2022/10/19 04:44:38;;;;;;;1999.90;999.90;;;9.40;99.90;;;;;;5097171;28;20087;-65
2022/10/19 04:47:03;;;;;;;1999.90;999.90;;;9.40;99.90;;;;;;5111138;27;20035;-65
2022/10/19 04:49:29;;;;;;;1999.90;999.90;;;9.40;99.90;;;;;;5092381;28;20221;-65
2022/10/19 04:51:55;;;;;;;1999.90;999.90;;;9.40;99.90;;;;;;5109445;27;20043;-65
2022/10/19 04:54:20;;;;;;;1999.90;999.90;;;9.40;99.90;;;;;;5103260;28;20497;-65
2022/10/19 04:56:46;;;;;;;1999.90;999.90;;;9.40;99.90;;;;;;5093004;28;20497;-65
2022/10/19 04:59:11;;;;;;;1999.90;999.90;;;9.40;99.90;;;;;;5110508;27;20039;-65
2022/10/19 05:01:37;;;;;;;1999.90;999.90;;;9.40;99.90;;;;;;5090648;28;20092;-65
2022/10/19 05:04:03;;;;;;;1999.90;999.90;;;9.40;99.90;;;;;;5097779;27;20511;-65
2022/10/19 05:06:30;;;;;;;1999.90;999.90;;;9.40;99.90;;;;;;5107468;28;20370;-65
2022/10/19 05:08:57;;;;;;;1999.90;999.90;;;9.40;99.90;;;;;;5089844;28;20040;-65
2022/10/19 05:11:22;;;;;;;1999.90;999.90;;;9.40;99.90;;;;;;5088874;28;20455;-65
2022/10/19 05:13:48;;;;;;;1999.90;999.90;;;9.40;99.90;;;;;;5094512;28;20047;-65
2022/10/19 05:16:20;;;;;;;1999.90;999.90;;;9.40;99.90;;;;;;5081047;28;20040;-65
2022/10/19 05:18:47;;;;;;;1999.90;999.90;;;9.40;99.90;;;;;;5108780;27;20031;-65
2022/10/19 05:21:14;;;;;;;1999.90;999.90;;;9.40;99.90;;;;;;5111965;27;20078;-65
2022/10/19 05:23:40;;;;;;;1999.90;999.90;;;9.40;99.90;;;;;;5112090;27;20060;-65
2022/10/19 05:26:12;;;;;;;1999.90;999.90;;;9.40;99.90;;;;;;5108534;27;21422;-65
2022/10/19 05:28:37;;;;;;;1999.90;999.90;;;9.40;99.90;;;;;;5108121;28;20114;-65
2022/10/19 05:31:14;;;;;;;1999.90;999.90;;;9.40;99.90;;;;;;5114482;27;20147;-65
2022/10/19 05:33:40;;;;;;;1999.90;999.90;;;9.50;99.90;;;;;;5108476;27;20047;-65
2022/10/19 05:36:33;;;;;;;1999.90;999.90;;;9.50;99.90;;;;;;5098171;28;20497;-65
2022/10/19 05:39:01;;;;;;;1999.90;999.90;;;9.50;99.90;;;;;;5094716;27;20086;-65
2022/10/19 05:41:27;;;;;;;1999.90;999.90;;;9.50;99.90;;;;;;5113130;27;20281;-65
2022/10/19 05:43:55;;;;;;;1999.90;999.90;;;9.50;99.90;;;;;;5112787;27;20035;-65
2022/10/19 05:46:21;;;;;;;1999.90;999.90;;;9.60;99.90;;;;;;5092438;28;20104;-66
2022/10/19 05:48:47;;;;;;;1999.90;999.90;;;9.60;99.90;;;;;;5117614;27;20051;-65
2022/10/19 05:51:15;;;;;;;1999.90;999.90;;;9.70;99.90;;;;;;5106475;28;20042;-65
2022/10/19 05:53:41;;;;;;;1999.90;999.90;;;9.80;99.90;;;;;;5108668;27;20561;-65
2022/10/19 05:56:11;;;;;;;1999.90;999.90;;;9.80;99.90;;;;;;5092289;28;20039;-65
2022/10/19 05:58:37;;;;;;;1999.90;999.90;;;9.90;99.90;;;;;;5110287;28;20074;-65
2022/10/19 06:01:02;;;;;;;1999.90;999.90;;;9.90;99.90;;;;;;5087453;28;20525;-65
2022/10/19 06:03:29;;;;;;;1999.90;999.90;;;9.90;99.90;;;;;;5094871;28;20128;-65
2022/10/19 06:05:55;;;;;;;1999.90;999.90;;;10.00;99.90;;;;;;5105179;28;20419;-65
2022/10/19 06:08:22;;;;;;;1999.90;999.90;;;10.00;99.90;;;;;;5101426;28;20047;-65
2022/10/19 06:10:49;;;;;;;1999.90;999.90;;;10.10;99.90;;;;;;5089467;28;20044;-65
2022/10/19 06:13:17;;;;;;;1999.90;999.90;;;10.10;99.90;;;;;;5111443;28;20058;-65
2022/10/19 06:15:42;;;;;;;1999.90;999.90;;;10.10;99.90;;;;;;5099790;28;20092;-65
2022/10/19 06:18:10;;;;;;;1999.90;999.90;;;10.10;99.90;;;;;;5099102;28;20035;-65
2022/10/19 06:20:37;;;;;;;1999.90;999.90;;;10.10;99.90;;;;;;5081135;28;20561;-65
2022/10/19 06:23:04;;;;;;;1999.90;999.90;;;10.20;99.90;;;;;;5078233;28;20098;-65
2022/10/19 06:25:30;;;;;;;1999.90;999.90;;;10.20;99.90;;;;;;5106977;28;20044;-65
2022/10/19 06:27:57;;;;;;;1999.90;999.90;;;10.20;99.90;;;;;;5099870;28;20464;-65
2022/10/19 06:30:22;;;;;;;1999.90;999.90;;;10.30;99.90;;;;;;5111813;28;20118;-65
2022/10/19 06:32:48;;;;;;;1999.90;999.90;;;10.30;99.90;;;;;;5100851;28;20127;-65
2022/10/19 06:35:15;;;;;;;1999.90;999.90;;;10.30;99.90;;;;;;5088944;28;20413;-65
2022/10/19 06:37:40;;;;;;;1999.90;999.90;;;10.30;99.90;;;;;;5117140;27;20042;-65
2022/10/19 06:40:07;;;;;;;1999.90;999.90;;;10.30;99.90;;;;;;5094709;28;20039;-65
2022/10/19 06:42:32;;;;;;;1999.90;999.90;;;10.30;99.90;;;;;;5089788;28;20039;-65
2022/10/19 06:44:58;;;;;;;1999.90;999.90;;;10.30;99.90;;;;;;5107749;27;20453;-65
2022/10/19 06:47:29;;;;;;;1999.90;999.90;;;10.30;99.90;;;;;;5108040;27;20048;-65
2022/10/19 06:49:55;;;;;;;1999.90;999.90;;;10.30;99.90;;;;;;5116209;27;20110;-65
2022/10/19 06:52:21;;;;;;;1999.90;999.90;;;10.40;99.90;;;;;;5115357;27;20043;-65
2022/10/19 06:54:47;;;;;;;1999.90;999.90;;;10.40;99.90;;;;;;5120919;27;20035;-65
2022/10/19 06:57:12;;;;;;;1999.90;999.90;;;10.40;99.90;;;;;;5097405;28;20046;-65
2022/10/19 06:59:38;;;;;;;1999.90;999.90;;;10.40;99.90;;;;;;5100962;27;20497;-66
2022/10/19 07:02:04;;;;;;;1999.90;999.90;;;10.40;99.90;;;;;;5083294;28;20397;-65
2022/10/19 07:04:29;;;;;;;1999.90;999.90;;;10.40;99.90;;;;;;5086357;28;20151;-66
2022/10/19 07:06:55;;;;;;;1999.90;999.90;;;10.50;99.90;;;;;;5082602;28;20069;-66
2022/10/19 07:09:21;;;;;;;1999.90;999.90;;;10.50;99.90;;;;;;5102726;28;20043;-65
2022/10/19 07:11:47;;;;;;;1999.90;999.90;;;10.50;99.90;;;;;;5089493;28;20054;-66
2022/10/19 07:14:13;;;;;;;1999.90;999.90;;;10.50;99.90;;;;;;5091681;27;20039;-65
2022/10/19 07:16:38;;;;;;;1999.90;999.90;;;10.60;99.90;;;;;;5102851;28;20032;-65
2022/10/19 07:19:04;;;;;;;1999.90;999.90;;;10.70;99.90;;;;;;5101125;28;20041;-65
2022/10/19 07:21:30;;;;;;;1999.90;999.90;;;10.80;99.90;;;;;;5103367;28;20046;-65
2022/10/19 07:23:55;;;;;;;1999.90;999.90;;;10.90;99.90;;;;;;5101208;28;20043;-65
2022/10/19 07:26:25;;;;;;;1999.90;999.90;;;10.90;99.90;;;;;;5085057;28;20066;-66
2022/10/19 07:28:52;;;;;;;1999.90;999.90;;;11.00;99.90;;;;;;5108003;27;20043;-65
2022/10/19 07:31:20;;;;;;;1999.90;999.90;;;11.00;99.90;;;;;;5092971;28;20119;-65
2022/10/19 07:33:46;;;;;;;1999.90;999.90;;;11.10;99.90;;;;;;5093960;28;20056;-65
2022/10/19 07:36:12;;;;;;;1999.90;999.90;;;11.20;99.90;;;;;;5108417;28;20428;-65
2022/10/19 07:38:39;;;;;;;1999.90;999.90;;;11.30;99.90;;;;;;5094198;28;20063;-65
2022/10/19 07:41:11;;;;;;;1999.90;999.90;;;11.30;99.90;;;;;;5106831;27;20034;-65
2022/10/19 07:43:38;;;;;;;1999.90;999.90;;;11.40;99.90;;;;;;5089822;28;20080;-65
2022/10/19 07:46:15;;;;;;;1999.90;999.90;;;11.40;99.90;;;;;;5085937;28;20047;-66
2022/10/19 07:48:41;;;;;;;1999.90;999.90;;;11.50;99.90;;;;;;5103587;27;20277;-65
2022/10/19 07:51:09;;;;;;;1999.90;999.90;;;11.50;99.90;;;;;;5125832;27;20126;-65
2022/10/19 07:53:35;;;;;;;1999.90;999.90;;;11.60;99.90;;;;;;5097503;27;20055;-65
2022/10/19 07:56:07;;;;;;;1999.90;999.90;;;11.70;99.90;;;;;;5109895;27;20396;-65
2022/10/19 07:58:33;;;;;;;1999.90;999.90;;;11.70;99.90;;;;;;5090761;28;20153;-65
2022/10/19 08:01:07;;;;;;;1999.90;999.90;;;11.70;99.90;;;;;;5096718;28;20047;-65
2022/10/19 08:03:34;;;;;;;1999.90;999.90;;;11.80;99.90;;;;;;5111256;27;20043;-65
2022/10/19 08:06:01;;;;;;;1999.90;999.90;;;11.80;99.90;;;;;;5112099;27;20051;-65
2022/10/19 08:08:27;;;;;;;1999.90;999.90;;;11.90;99.90;;;;;;5110095;28;20047;-65
2022/10/19 08:10:53;;;;;;;1999.90;999.90;;;11.90;99.90;;;;;;5109605;27;20047;-65
2022/10/19 08:13:19;;;;;;;1999.90;999.90;;;12.00;99.90;;;;;;5129073;27;20039;-65
2022/10/19 08:15:44;;;;;;;1999.90;999.90;;;12.00;99.90;;;;;;5111972;27;20103;-65
2022/10/19 08:18:10;;;;;;;1999.90;999.90;;;12.10;99.90;;;;;;5083807;28;20351;-65
2022/10/19 08:20:36;;;;;;;1999.90;999.90;;;12.10;99.90;;;;;;5094344;28;20035;-65
2022/10/19 08:23:02;;;;;;;1999.90;999.90;;;12.20;99.90;;;;;;5099547;28;20374;-65
2022/10/19 08:25:27;;;;;;;1999.90;999.90;;;12.20;99.90;;;;;;5111226;27;20528;-65
2022/10/19 08:27:53;;;;;;;1999.90;999.90;;;12.30;99.90;;;;;;5111340;27;20039;-65
2022/10/19 08:30:18;;;;;;;1999.90;999.90;;;12.30;99.90;;;;;;5090767;28;20040;-65
2022/10/19 08:32:44;;;;;;;1999.90;999.90;;;12.40;99.90;;;;;;5107823;28;20031;-65
2022/10/19 08:35:09;;;;;;;1999.90;999.90;;;12.40;99.90;;;;;;5105159;28;20035;-65
2022/10/19 08:37:35;;;;;;;1999.90;999.90;;;12.50;99.90;;;;;;5095849;28;20031;-65
2022/10/19 08:40:00;;;;;;;1999.90;999.90;;;12.50;99.90;;;;;;5091026;28;20066;-65
2022/10/19 08:42:36;;;;;;;1999.90;999.90;;;12.60;99.90;;;;;;5105423;27;20062;-65
2022/10/19 08:45:10;;;;;;;1999.90;999.90;;;12.70;99.90;;;;;;5091805;28;20401;-65
2022/10/19 08:47:42;;;;;;;1999.90;999.90;;;12.70;99.90;;;;;;5091203;28;20083;-65
2022/10/19 08:50:21;;;;;;;1999.90;999.90;;;12.80;99.90;;;;;;5107174;28;20211;-65
2022/10/19 08:52:54;;;;;;;1999.90;999.90;;;12.80;99.90;;;;;;5094639;28;20050;-65
2022/10/19 08:55:45;;;;;;;1999.90;999.90;;;12.90;99.90;;;;;;5104968;27;20066;-65
2022/10/19 08:58:55;;;;;;;1999.90;999.90;;;13.00;99.90;;;;;;5063896;28;20079;-65
2022/10/19 09:01:48;;;;;;;1999.90;999.90;;;13.00;99.90;;;;;;5085019;28;20052;-65
2022/10/19 09:04:36;;;;;;;1999.90;999.90;;;13.10;99.90;;;;;;5093405;28;20410;-66
2022/10/19 09:07:28;;;;;;;1999.90;999.90;;;13.20;99.90;;;;;;5099805;28;20050;-65
2022/10/19 09:10:03;;;;;;;1999.90;999.90;;;13.20;99.90;;;;;;5088021;27;20031;-65
2022/10/19 09:12:51;;;;;;;1999.90;999.90;;;13.10;99.90;;;;;;5106897;27;20039;-65
2022/10/19 09:15:20;;;;;;;1999.90;999.90;;;13.10;99.90;;;;;;5103986;28;20501;-65
2022/10/19 09:17:46;;;;;;;1999.90;999.90;;;13.10;99.90;;;;;;5112001;27;20134;-65
2022/10/19 09:20:21;;;;;;;1999.90;999.90;;;13.20;99.90;;;;;;5088269;28;20130;-65
2022/10/19 09:23:00;;;;;;;1999.90;999.90;;;13.20;99.90;;;;;;5094400;28;20455;-65
2022/10/19 09:25:29;;;;;;;1999.90;999.90;;;13.30;99.90;;;;;;5091647;28;20047;-65
2022/10/19 09:28:11;;;;;;;1999.90;999.90;;;13.30;99.90;;;;;;5089730;28;20051;-65
2022/10/19 09:30:39;;;;;;;1999.90;999.90;;;13.40;99.90;;;;;;5071570;28;20450;-65
2022/10/19 09:33:13;;;;;;;1999.90;999.90;;;13.40;99.90;;;;;;5101516;27;20035;-66
2022/10/19 09:35:43;;;;;;;1999.90;999.90;;;13.40;99.90;;;;;;5107911;28;20039;-66
2022/10/19 09:38:13;;;;;;;1999.90;999.90;;;13.40;99.90;;;;;;5089499;28;20098;-66
2022/10/19 09:40:38;;;;;;;1999.90;999.90;;;13.40;99.90;;;;;;5107520;28;20080;-65
2022/10/19 09:43:19;;;;;;;1999.90;999.90;;;13.30;99.90;;;;;;5111069;27;20043;-65
2022/10/19 09:46:14;;;;;;;1999.90;999.90;;;13.30;99.90;;;;;;5081450;28;20048;-65
2022/10/19 09:48:51;;;;;;;1999.90;999.90;;;13.40;99.90;;;;;;5104573;27;20059;-66
2022/10/19 09:51:17;;;;;;;1999.90;999.90;;;13.40;99.90;;;;;;5089027;28;20051;-65
2022/10/19 09:53:54;;;;;;;1999.90;999.90;;;13.40;99.90;;;;;;5098721;27;20476;-65
2022/10/19 09:56:23;;;;;;;1999.90;999.90;;;13.50;99.90;;;;;;5089655;27;20039;-65
2022/10/19 09:58:54;;;;;;;1999.90;999.90;;;13.50;99.90;;;;;;5100401;28;20088;-66
2022/10/19 10:01:39;;;;;;;1999.90;999.90;;;13.50;99.90;;;;;;5089443;28;20051;-66
2022/10/19 10:04:07;;;;;;;1999.90;999.90;;;13.50;99.90;;;;;;5101941;28;20116;-66
2022/10/19 10:06:34;;;;;;;1999.90;999.90;;;13.50;99.90;;;;;;5107143;28;20176;-65
2022/10/19 10:09:00;;;;;;;1999.90;999.90;;;13.50;99.90;;;;;;5097926;28;20047;-65
2022/10/19 10:11:28;;;;;;;1999.90;999.90;;;13.50;99.90;;;;;;5094145;28;20039;-65
2022/10/19 10:13:56;;;;;;;1999.90;999.90;;;13.50;99.90;;;;;;5101018;28;20420;-65
2022/10/19 10:16:28;;;;;;;1999.90;999.90;;;13.50;99.90;;;;;;5101862;28;20077;-65
2022/10/19 10:19:06;;;;;;;1999.90;999.90;;;13.50;99.90;;;;;;5079011;28;20806;-66
2022/10/19 10:21:56;;;;;;;1999.90;999.90;;;13.60;99.90;;;;;;5100325;28;20341;-66
2022/10/19 10:24:27;;;;;;;1999.90;999.90;;;13.70;99.90;;;;;;5102343;28;20043;-65
2022/10/19 10:27:03;;;;;;;1999.90;999.90;;;13.70;99.90;;;;;;5082648;28;20036;-65
2022/10/19 10:29:31;;;;;;;1999.90;999.90;;;13.80;99.90;;;;;;5097431;28;20093;-65
2022/10/19 10:32:17;;;;;;;1999.90;999.90;;;13.80;99.90;;;;;;5085907;28;20050;-65
2022/10/19 10:34:55;;;;;;;1999.90;999.90;;;13.90;99.90;;;;;;5102407;28;20039;-65
2022/10/19 10:37:26;;;;;;;1999.90;999.90;;;13.90;99.90;;;;;;5085596;28;20039;-66
2022/10/19 10:39:55;;;;;;;1999.90;999.90;;;14.10;99.90;;;;;;5078660;28;20114;-66
2022/10/19 10:42:35;;;;;;;1999.90;999.90;;;14.20;99.90;;;;;;5098701;28;20168;-66
2022/10/19 10:45:02;;;;;;;1999.90;999.90;;;14.30;99.90;;;;;;5101389;28;20583;-65
2022/10/19 10:47:29;;;;;;;1999.90;999.90;;;14.40;99.90;;;;;;5104422;28;20115;-66
2022/10/19 10:50:01;;;;;;;1999.90;999.90;;;14.40;99.90;;;;;;5107329;28;20047;-65
2022/10/19 10:52:30;;;;;;;1999.90;999.90;;;14.50;99.90;;;;;;5084296;28;20039;-65
2022/10/19 10:55:07;;;;;;;1999.90;999.90;;;14.60;99.90;;;;;;5101219;28;20091;-66
2022/10/19 10:58:12;;;;;;;1999.90;999.90;;;14.80;99.90;;;;;;5091519;28;20208;-66
2022/10/19 11:00:39;;;;;;;1999.90;999.90;;;14.90;99.90;;;;;;5082023;28;20043;-65
2022/10/19 11:03:22;;;;;;;1999.90;999.90;;;14.90;99.90;;;;;;5086823;28;20040;-66
2022/10/19 11:05:54;;;;;;;1999.90;999.90;;;14.70;99.90;;;;;;5102412;28;20176;-66
2022/10/19 11:08:46;;;;;;;1999.90;999.90;;;14.60;99.90;;;;;;5108391;28;20043;-65
2022/10/19 11:11:38;;;;;;;1999.90;999.90;;;14.50;99.90;;;;;;5073789;28;20060;-65
2022/10/19 11:14:39;;;;;;;1999.90;999.90;;;14.40;99.90;;;;;;5103446;28;20462;-65
2022/10/19 11:17:12;;;;;;;1999.90;999.90;;;14.40;99.90;;;;;;5083296;28;20044;-65
2022/10/19 11:19:44;;;;;;;1999.90;999.90;;;14.50;99.90;;;;;;5101204;28;20066;-65
2022/10/19 11:22:12;;;;;;;1999.90;999.90;;;14.50;99.90;;;;;;5088585;27;20088;-65
2022/10/19 11:25:02;;;;;;;1999.90;999.90;;;14.40;99.90;;;;;;5108975;27;20043;-65
2022/10/19 11:27:42;;;;;;;1999.90;999.90;;;14.40;99.90;;;;;;5071960;28;20377;-66
2022/10/19 11:30:14;;;;;;;1999.90;999.90;;;14.40;99.90;;;;;;5060368;27;20088;-65
2022/10/19 11:32:57;;;;;;;1999.90;999.90;;;14.40;99.90;;;;;;5075717;28;20044;-65
2022/10/19 11:35:26;;;;;;;1999.90;999.90;;;14.40;99.90;;;;;;5066705;28;20130;-65
2022/10/19 11:38:24;;;;;;;1999.90;999.90;;;14.40;99.90;;;;;;5103735;28;20089;-65
2022/10/19 11:41:22;;;;;;;1999.90;999.90;;;14.30;99.90;;;;;;5056711;28;20412;-65
2022/10/19 11:44:12;;;;;;;1999.90;999.90;;;14.30;99.90;;;;;;5098885;28;20400;-65
2022/10/19 11:46:58;;;;;;;1999.90;999.90;;;14.30;99.90;;;;;;5107084;27;20148;-66
2022/10/19 11:49:55;;;;;;;1999.90;999.90;;;14.30;99.90;;;;;;5101486;28;20114;-65
2022/10/19 11:52:32;;;;;;;1999.90;999.90;;;14.40;99.90;;;;;;5105982;27;20048;-65
2022/10/19 11:55:18;;;;;;;1999.90;999.90;;;14.40;99.90;;;;;;5126894;27;20389;-65
2022/10/19 11:57:55;;;;;;;1999.90;999.90;;;14.50;99.90;;;;;;5089657;28;20039;-66
2022/10/19 12:00:21;;;;;;;1999.90;999.90;;;14.50;99.90;;;;;;5111630;27;20039;-65
2022/10/19 12:03:11;;;;;;;1999.90;999.90;;;14.60;99.90;;;;;;5112561;27;20070;-65
2022/10/19 12:06:26;;;;;;;1999.90;999.90;;;14.70;99.90;;;;;;5086661;28;20047;-65
2022/10/19 12:09:21;;;;;;;1999.90;999.90;;;14.90;99.90;;;;;;5077751;28;20051;-66
2022/10/19 12:11:50;;;;;;;1999.90;999.90;;;14.90;99.90;;;;;;5119430;27;20096;-65
2022/10/19 12:14:20;;;;;;;1999.90;999.90;;;14.90;99.90;;;;;;5098936;27;20055;-65
2022/10/19 12:16:49;;;;;;;1999.90;999.90;;;14.90;99.90;;;;;;5103666;27;20429;-66
2022/10/19 12:19:31;;;;;;;1999.90;999.90;;;14.90;99.90;;;;;;5084378;27;20044;-65
2022/10/19 12:22:03;;;;;;;1999.90;999.90;;;14.80;99.90;;;;;;5103474;27;20040;-66
2022/10/19 12:24:31;;;;;;;1999.90;999.90;;;14.70;99.90;;;;;;5105739;27;20054;-66